Terminal Aerodrome Forecast
Issued by NWS

Home | Current Version | Previous Version | Text Only | Print | Product List | Glossary On
Versions: 1 2 3 4 5 6 7 8 9 10 11 12 13 14 15 16 17
000
FTUS42 KMLB 221136
TAFSFB
TAF
KSFB 221136Z 2212/2312 31004KT P6SM FEW012 SCT060 SCT250
      TEMPO 2212/2213 SCT010 BKN060
     FM221400 34008KT P6SM FEW030 SCT250
     FM221800 02008KT P6SM SCT040 BKN250
     FM230000 05011KT P6SM SCT060
     FM230300 04005KT P6SM FEW060 SCT250=

USA.gov is the U.S. government's official web portal to all federal, state and local government web resources and services.